^^

Nearby METAR Reports

 

EGNV - Tees-Side, United Kingdom
Distance from station: SW 7mi, 11km
Updated: 26/07/2021 21:20
NOT Current
Few Clouds
Few Clouds
 Wind from NW
Wind: NW 7 mph , 11 km/h
Temperature: 18°C
Dew Point: 15°C
Humidity: 83%
Barometer: 1007 hPa
Clouds: Few Clouds
Visibility: 6 miles , 10 km
Cloud details: Few Clouds 1067 m
2021/07/26 20:20 EGNV 262020Z 31006KT 9999 FEW035 18/15 Q1007
EGXE - Leeming Raf, United Kingdom
Distance from station: SSW 23mi, 37km
Updated: 26/07/2021 16:50
NOT Current
Partly cloudy
Partly cloudy
 Wind from S
Wind: S 6 mph , 9 km/h
Temperature: 24°C
Dew Point: 13°C
Humidity: 50%
Barometer: 1007 hPa
Clouds: Partly cloudy
Visibility: 6 miles , 10 km
Cloud details: Few Clouds 1494 m
Partly cloudy 2134 m
2021/07/26 15:50 EGXE 261550Z AUTO 19005KT 9999 FEW049/// SCT070/// 24/13 Q1007
 
EGXZ - Topcliffe Raf, United Kingdom
Distance from station: S 27mi, 43km
Updated: 27/07/2021 00:50
Clear
Clear
 Wind from W
Wind: W 3 mph , 6 km/h
Temperature: 16°C
Dew Point: 14°C
Humidity: 88%
Barometer: 1008 hPa
Clouds: Clear
Visibility: 6 miles , 10 km
2021/07/26 23:50 EGXZ 262350Z AUTO 27003KT 9999 NCD 16/14 Q1008
EGNT - Newcastle, United Kingdom
Distance from station: NNW 34mi, 54km
Updated: 27/07/2021 00:50
Partly cloudy
Partly cloudy
 Wind from W
Wind: W 5 mph , 7 km/h
Temperature: 15°C
Dew Point: 13°C
Humidity: 88%
Barometer: 1008 hPa
Clouds: Partly cloudy
Visibility: 6 miles , 10 km
Cloud details: Partly cloudy 1402 m
2021/07/26 23:50 EGNT 262350Z AUTO 27004KT 9999 SCT046/// 15/13 Q1008
 
EGXU - Linton-On-Ouse R, United Kingdom
Distance from station: S 37mi, 60km
Updated: 27/07/2021 00:50
Clear
Clear
 Wind from W
Wind: W 9 mph , 15 km/h
Temperature: 16°C
Dew Point: 14°C
Humidity: 88%
Barometer: 1008 hPa
Clouds: Clear
Visibility: 6 miles , 10 km
2021/07/26 23:50 EGXU 262350Z AUTO 26008KT 9999 NCD 16/14 Q1008
EGNM - Leeds And Bradfo, United Kingdom
Distance from station: SSW 52mi, 83km
Updated: 27/07/2021 00:50
Clear
Clear
 Wind from W
Wind: W 13 mph , 20 km/h
Temperature: 15°C
Dew Point: 13°C
Humidity: 88%
Barometer: 1009 hPa
Summary: Clear
Visibility: greater than 7 miles , 10 km
2021/07/26 23:50 EGNM 262350Z 27011KT CAVOK 15/13 Q1009
 
EGOM - Spadeadam, United Kingdom
Distance from station: WNW 58mi, 94km
Updated: 27/07/2021 00:50
Mist, Overcast
Mist, Overcast
 Wind from SW
Wind: SW 7 mph , 11 km/h
Temperature: 14°C
Dew Point: 13°C
Humidity: 94%
Barometer: 1008 hPa
Summary: Mist
Clouds: Overcast
Visibility: 4 miles , 6 km
Cloud details: Overcast 91 m
2021/07/26 23:50 EGOM 262350Z AUTO 22006KT 6000 BR OVC003/// 14/13 Q1008
EGCN - Doncaster Sheffi, United Kingdom
Distance from station: S 77mi, 124km
Updated: 27/07/2021 00:50
Clear
Clear
 Wind from WNW
Wind: WNW 8 mph , 13 km/h
Temperature: 17°C
Dew Point: 14°C
Humidity: 83%
Barometer: 1009 hPa
Clouds: Clear
Visibility: 6 miles , 10 km
2021/07/26 23:50 EGCN 262350Z AUTO 30007KT 9999 NCD 17/14 Q1009
 
EGNJ - Humberside, United Kingdom
Distance from station: SSE 80mi, 129km
Updated: 27/07/2021 00:50
Clear
Clear
 Wind from SW
Wind: SW 5 mph , 7 km/h
Temperature: 17°C
Dew Point: 15°C
Humidity: 88%
Barometer: 1008 hPa
Clouds: Clear
Visibility: 6 miles , 10 km
2021/07/26 23:50 EGNJ 262350Z AUTO 22004KT 9999 NCD 17/15 Q1008
EGNH - Blackpool Airpor, United Kingdom
Distance from station: SW 90mi, 145km
Updated: 26/07/2021 19:50
NOT Current
Few Clouds
Few Clouds
 Wind from NW
Wind: NW 6 mph , 9 km/h
Temperature: 19°C
Dew Point: 15°C
Humidity: 78%
Barometer: 1008 hPa
Clouds: Few Clouds
Visibility: 6 miles , 10 km
Cloud details: Few Clouds 366 m
2021/07/26 18:50 EGNH 261850Z 32005KT 280V350 9999 FEW012 19/15 Q1008
 
EGXP - Scampton Raf, United Kingdom
Distance from station: SSE 94mi, 151km
Updated: 27/07/2021 00:50
Mostly cloudy
Mostly cloudy
 Wind from SSE
Wind: SSE 1 mph , 2 km/h
Temperature: 17°C
Dew Point: 14°C
Humidity: 83%
Barometer: 1008 hPa
Clouds: Mostly cloudy
Visibility: 6 miles , 10 km
Cloud details: Mostly cloudy 1829 m
2021/07/26 23:50 EGXP 262350Z AUTO 15001KT 9999 // BKN060/// 17/14 Q1008
EGCC - Manchester Intl, United Kingdom
Distance from station: SSW 94mi, 152km
Updated: 27/07/2021 00:50
Clear
Clear
 Wind from W
Wind: W 3 mph , 6 km/h
Temperature: 15°C
Dew Point: 13°C
Humidity: 88%
Barometer: 1009 hPa
Clouds: Clear
Visibility: 6 miles , 10 km
2021/07/26 23:50 EGCC 262350Z AUTO 28003KT 9999 NCD 15/13 Q1009 NOSIG